Time;durP1;ratioP1;P1;durP2;ratioP2;P2;SDS_P1;SDS_P2;PMS_P1;PMS_P2;Temp;Humidity;BMP_temperature;BMP_pressure;BME280_temperature;BME280_humidity;BME280_pressure;Samples;Min_cycle;Max_cycle;Signal;HPM_P1;HPM_P2
2022/05/20 00:01:53;;;;;;;7.53;3.58;;;;;;;;;;5049770;28;20346;-45
2022/05/20 00:04:19;;;;;;;8.68;3.88;;;;;;;;;;5052354;28;20020;-43
2022/05/20 00:06:45;;;;;;;7.80;3.50;;;;;;;;;;5051974;28;20024;-43
2022/05/20 00:09:11;;;;;;;9.30;3.47;;;;;;;;;;5052011;28;20114;-44
2022/05/20 00:11:38;;;;;;;8.75;3.55;;;;;;;;;;5051774;28;20063;-45
2022/05/20 00:14:05;;;;;;;9.68;4.70;;;;;;;;;;5047868;28;20029;-45
2022/05/20 00:16:33;;;;;;;9.07;4.05;;;;;;;;;;5047419;28;20079;-45
2022/05/20 00:18:59;;;;;;;9.68;4.07;;;;;;;;;;5043370;28;20029;-42
2022/05/20 00:21:25;;;;;;;8.30;3.72;;;;;;;;;;5046802;28;20032;-44
2022/05/20 00:23:54;;;;;;;12.30;3.83;;;;;;;;;;5047688;28;20029;-42
2022/05/20 00:26:22;;;;;;;12.95;4.43;;;;;;;;;;5044727;28;20523;-44
2022/05/20 00:28:53;;;;;;;7.70;4.20;;;;;;;;;;5047963;28;20040;-41
2022/05/20 00:31:22;;;;;;;7.50;3.67;;;;;;;;;;5051484;28;20017;-41
2022/05/20 00:33:48;;;;;;;6.75;4.32;;;;;;;;;;5051259;28;20017;-42
2022/05/20 00:36:14;;;;;;;11.45;5.22;;;;;;;;;;5055215;28;20107;-41
2022/05/20 00:38:41;;;;;;;9.00;3.78;;;;;;;;;;5055407;28;20035;-42
2022/05/20 00:41:07;;;;;;;4.32;3.28;;;;;;;;;;5055008;28;20480;-42
2022/05/20 00:43:33;;;;;;;7.40;4.50;;;;;;;;;;5055190;28;20035;-42
2022/05/20 00:46:01;;;;;;;7.68;5.18;;;;;;;;;;5055211;28;20021;-42
2022/05/20 00:48:30;;;;;;;10.05;4.38;;;;;;;;;;5054842;28;20381;-41
2022/05/20 00:51:01;;;;;;;8.90;2.97;;;;;;;;;;5054925;28;20028;-41
2022/05/20 00:53:30;;;;;;;12.88;4.05;;;;;;;;;;5055226;28;20029;-41
2022/05/20 00:55:56;;;;;;;7.13;3.22;;;;;;;;;;5036675;28;20029;-41
2022/05/20 00:58:24;;;;;;;4.90;2.88;;;;;;;;;;5055016;28;20028;-42
2022/05/20 01:00:52;;;;;;;6.82;3.55;;;;;;;;;;5054915;28;20052;-43
2022/05/20 01:03:20;;;;;;;6.47;3.90;;;;;;;;;;5055109;28;20049;-42
2022/05/20 01:05:48;;;;;;;5.38;3.50;;;;;;;;;;5054575;28;20067;-42
2022/05/20 01:08:16;;;;;;;6.93;3.30;;;;;;;;;;5054688;28;20531;-42
2022/05/20 01:10:43;;;;;;;7.63;4.22;;;;;;;;;;5054423;28;20080;-42
2022/05/20 01:13:10;;;;;;;7.93;3.60;;;;;;;;;;5054684;28;20044;-42
2022/05/20 01:15:36;;;;;;;11.23;6.10;;;;;;;;;;5054493;28;20076;-42
2022/05/20 01:18:03;;;;;;;8.00;3.95;;;;;;;;;;5054644;28;20048;-42
2022/05/20 01:20:30;;;;;;;7.70;3.38;;;;;;;;;;5054276;28;20029;-42
2022/05/20 01:22:56;;;;;;;11.20;4.15;;;;;;;;;;5054626;28;20071;-45
2022/05/20 01:25:24;;;;;;;6.95;3.83;;;;;;;;;;5054026;28;20024;-42
2022/05/20 01:27:52;;;;;;;9.52;3.95;;;;;;;;;;5055876;28;20017;-43
2022/05/20 01:30:21;;;;;;;10.60;5.40;;;;;;;;;;5074258;28;20519;-43
2022/05/20 01:32:48;;;;;;;8.40;4.15;;;;;;;;;;5074189;28;20031;-43
2022/05/20 01:35:49;;;;;;;9.30;4.10;;;;;;;;;;5074038;28;20076;-42
2022/05/20 01:38:15;;;;;;;5.80;3.22;;;;;;;;;;4956578;28;20462;-43
2022/05/20 01:40:44;;;;;;;9.15;4.25;;;;;;;;;;4973240;28;20038;-42
2022/05/20 01:43:16;;;;;;;6.82;3.20;;;;;;;;;;4973220;28;20038;-42
2022/05/20 01:45:42;;;;;;;;;;;;;;;;;;4973881;28;20050;-42
2022/05/20 01:48:13;;;;;;;5.95;3.28;;;;;;;;;;4973161;28;19910;-44
2022/05/20 01:50:43;;;;;;;7.32;3.00;;;;;;;;;;4973052;28;20034;-45
2022/05/20 01:53:16;;;;;;;5.63;2.92;;;;;;;;;;4973402;28;20482;-44
2022/05/20 01:55:53;;;;;;;7.25;3.03;;;;;;;;;;4973060;28;20133;-44
2022/05/20 01:58:23;;;;;;;8.18;3.00;;;;;;;;;;4973086;28;20054;-45
2022/05/20 02:00:50;;;;;;;6.63;3.10;;;;;;;;;;4972984;28;20030;-45
2022/05/20 02:03:25;;;;;;;7.47;3.40;;;;;;;;;;4971529;28;20050;-44
2022/05/20 02:06:11;;;;;;;6.72;3.33;;;;;;;;;;4972806;28;20066;-42
2022/05/20 02:08:51;;;;;;;8.13;3.50;;;;;;;;;;4972950;28;20043;-42
2022/05/20 02:11:21;;;;;;;5.85;3.38;;;;;;;;;;4982129;28;20068;-42
2022/05/20 02:13:51;;;;;;;9.10;3.20;;;;;;;;;;5073570;28;20020;-41
2022/05/20 02:16:20;;;;;;;6.93;3.58;;;;;;;;;;5073513;28;20491;-42
2022/05/20 02:18:49;;;;;;;8.48;3.42;;;;;;;;;;5073217;28;20036;-44
2022/05/20 02:21:17;;;;;;;13.27;4.15;;;;;;;;;;5073435;28;20063;-42
2022/05/20 02:23:47;;;;;;;7.13;3.50;;;;;;;;;;5073463;28;20060;-43
2022/05/20 02:26:15;;;;;;;6.15;3.58;;;;;;;;;;5073262;28;20129;-43
2022/05/20 02:28:44;;;;;;;7.13;3.60;;;;;;;;;;5073225;28;20472;-43
2022/05/20 02:31:18;;;;;;;4.65;3.70;;;;;;;;;;5073582;28;20140;-42
2022/05/20 02:33:45;;;;;;;8.07;4.32;;;;;;;;;;5073233;28;20032;-43
2022/05/20 02:36:26;;;;;;;7.43;4.10;;;;;;;;;;5073478;28;20079;-42
2022/05/20 02:38:52;;;;;;;7.47;4.13;;;;;;;;;;5073388;28;20156;-43
2022/05/20 02:41:18;;;;;;;11.98;4.15;;;;;;;;;;5073190;28;20032;-42
2022/05/20 02:43:44;;;;;;;14.80;4.80;;;;;;;;;;5073425;28;20488;-42
2022/05/20 02:46:11;;;;;;;8.90;4.13;;;;;;;;;;5073767;28;20024;-43
2022/05/20 02:48:37;;;;;;;12.23;4.25;;;;;;;;;;5073535;28;20062;-43
2022/05/20 02:51:03;;;;;;;15.82;4.22;;;;;;;;;;5073108;28;20032;-43
2022/05/20 02:53:29;;;;;;;12.52;4.68;;;;;;;;;;5073052;28;20104;-42
2022/05/20 02:55:56;;;;;;;15.60;4.65;;;;;;;;;;5073084;28;20021;-43
2022/05/20 03:04:12;;;;;;;9.45;4.68;;;;;;;;;;5073202;28;20035;-42
2022/05/20 03:06:42;;;;;;;10.02;4.10;;;;;;;;;;5073377;28;20020;-43
2022/05/20 03:09:09;;;;;;;11.35;3.75;;;;;;;;;;5073269;28;20032;-43
2022/05/20 03:11:35;;;;;;;8.23;3.90;;;;;;;;;;5072998;28;20506;-43
2022/05/20 03:14:03;;;;;;;7.55;3.90;;;;;;;;;;5072841;28;20040;-43
2022/05/20 03:16:29;;;;;;;9.95;4.15;;;;;;;;;;5073078;28;20048;-43
2022/05/20 03:18:55;;;;;;;7.82;4.28;;;;;;;;;;5072782;28;20035;-42
2022/05/20 03:21:21;;;;;;;9.70;4.25;;;;;;;;;;5072810;28;20024;-42
2022/05/20 03:23:47;;;;;;;8.35;5.05;;;;;;;;;;5073090;28;20346;-42
2022/05/20 03:26:15;;;;;;;14.20;5.25;;;;;;;;;;5072811;28;20025;-42
2022/05/20 03:28:45;;;;;;;13.90;4.50;;;;;;;;;;5074228;28;20115;-43
2022/05/20 03:31:12;;;;;;;9.70;4.80;;;;;;;;;;5076481;28;20024;-42
2022/05/20 03:33:38;;;;;;;8.48;5.07;;;;;;;;;;5076648;28;20388;-43
2022/05/20 03:36:05;;;;;;;7.25;4.07;;;;;;;;;;5076592;28;20024;-43
2022/05/20 03:38:31;;;;;;;6.63;4.32;;;;;;;;;;5076564;28;20063;-43
2022/05/20 03:40:57;;;;;;;12.50;5.25;;;;;;;;;;5076137;28;20029;-43
2022/05/20 03:43:26;;;;;;;8.32;4.20;;;;;;;;;;5076234;28;20444;-43
2022/05/20 03:45:53;;;;;;;10.15;4.75;;;;;;;;;;5076321;28;20025;-43
2022/05/20 03:48:19;;;;;;;12.15;5.65;;;;;;;;;;5076264;28;21233;-42
2022/05/20 03:50:45;;;;;;;9.07;4.70;;;;;;;;;;5076117;28;20028;-42
2022/05/20 03:53:11;;;;;;;14.00;5.07;;;;;;;;;;5076145;28;20020;-43
2022/05/20 03:55:40;;;;;;;10.80;4.15;;;;;;;;;;5076050;28;20029;-42
2022/05/20 03:58:08;;;;;;;9.55;4.60;;;;;;;;;;5075906;28;20020;-43
2022/05/20 04:01:56;;;;;;;13.27;4.95;;;;;;;;;;5075905;28;20032;-44
2022/05/20 04:03:21;;;;;;;10.48;4.55;;;;;;;;;;5075880;28;20036;-44
2022/05/20 04:05:47;;;;;;;8.27;3.97;;;;;;;;;;5075720;28;20111;-43
2022/05/20 04:08:13;;;;;;;9.85;4.75;;;;;;;;;;5075926;28;20035;-43
2022/05/20 04:10:40;;;;;;;10.63;4.70;;;;;;;;;;5075648;28;20072;-43
2022/05/20 04:13:08;;;;;;;13.40;5.03;;;;;;;;;;5075952;28;20024;-43
2022/05/20 04:15:34;;;;;;;10.57;3.90;;;;;;;;;;5075722;28;20514;-43
2022/05/20 04:18:00;;;;;;;12.85;4.78;;;;;;;;;;5075562;28;20031;-43
2022/05/20 04:20:26;;;;;;;11.45;5.57;;;;;;;;;;5075312;28;20545;-43
2022/05/20 04:22:53;;;;;;;10.20;4.60;;;;;;;;;;5075703;28;20028;-44
2022/05/20 04:25:19;;;;;;;9.52;4.65;;;;;;;;;;5075444;28;20040;-44
2022/05/20 04:27:45;;;;;;;7.50;3.88;;;;;;;;;;5075237;28;20103;-43
2022/05/20 04:30:12;;;;;;;16.58;5.57;;;;;;;;;;5075378;28;20039;-43
2022/05/20 04:32:38;;;;;;;12.15;3.78;;;;;;;;;;5075424;28;20029;-43
2022/05/20 04:35:07;;;;;;;11.85;4.38;;;;;;;;;;5075182;28;20027;-43
2022/05/20 04:37:33;;;;;;;10.40;5.18;;;;;;;;;;5058426;28;20488;-43
2022/05/20 04:39:59;;;;;;;7.60;4.13;;;;;;;;;;5054658;28;20063;-43
2022/05/20 04:47:55;;;;;;;13.68;6.25;;;;;;;;;;5054652;28;20493;-42
2022/05/20 04:50:23;;;;;;;17.58;11.23;;;;;;;;;;5054317;28;20491;-46
2022/05/20 04:52:49;;;;;;;11.85;6.38;;;;;;;;;;5054708;28;20047;-45
2022/05/20 04:55:15;;;;;;;15.77;8.73;;;;;;;;;;5054743;28;20017;-44
2022/05/20 04:57:46;;;;;;;17.05;10.60;;;;;;;;;;5054621;28;20108;-44
2022/05/20 05:00:20;;;;;;;18.30;7.05;;;;;;;;;;5054235;28;20075;-44
2022/05/20 05:02:47;;;;;;;11.50;4.43;;;;;;;;;;5054345;28;20374;-44
2022/05/20 05:05:14;;;;;;;7.88;4.55;;;;;;;;;;5054137;28;20063;-43
2022/05/20 05:07:42;;;;;;;6.90;4.25;;;;;;;;;;5054241;28;20025;-48
2022/05/20 05:10:08;;;;;;;10.88;5.90;;;;;;;;;;5053844;28;20443;-44
2022/05/20 05:12:34;;;;;;;14.45;5.50;;;;;;;;;;5053946;28;20513;-42
2022/05/20 05:15:00;;;;;;;7.93;4.03;;;;;;;;;;5054089;28;20100;-42
2022/05/20 05:20:20;;;;;;;10.45;5.47;;;;;;;;;;5053363;28;20504;-43
2022/05/20 05:22:46;;;;;;;11.35;4.55;;;;;;;;;;5053741;28;20033;-46
2022/05/20 05:25:13;;;;;;;14.13;4.60;;;;;;;;;;5054153;28;20111;-44
2022/05/20 05:27:42;;;;;;;14.05;4.53;;;;;;;;;;5053745;28;20104;-43
2022/05/20 05:30:11;;;;;;;10.38;3.97;;;;;;;;;;5053874;28;20036;-44
2022/05/20 05:32:37;;;;;;;7.20;4.13;;;;;;;;;;5054087;28;20021;-43
2022/05/20 05:35:05;;;;;;;6.85;3.83;;;;;;;;;;5054043;28;20037;-43
2022/05/20 05:37:33;;;;;;;7.07;3.53;;;;;;;;;;5053915;28;20029;-42
2022/05/20 05:40:00;;;;;;;5.25;3.80;;;;;;;;;;5053894;28;20037;-43
2022/05/20 05:42:26;;;;;;;8.05;3.38;;;;;;;;;;5053898;28;20542;-43
2022/05/20 05:44:55;;;;;;;5.10;3.30;;;;;;;;;;5054061;28;20036;-46
2022/05/20 05:47:21;;;;;;;8.27;4.28;;;;;;;;;;5053788;28;20029;-43
2022/05/20 05:49:48;;;;;;;6.82;3.33;;;;;;;;;;5035874;28;20049;-44
2022/05/20 05:52:14;;;;;;;4.50;2.97;;;;;;;;;;5052871;28;20104;-43
2022/05/20 05:54:40;;;;;;;3.67;2.80;;;;;;;;;;5053767;28;20449;-44
2022/05/20 05:57:06;;;;;;;10.07;4.60;;;;;;;;;;5053229;28;20067;-43
2022/05/20 05:59:32;;;;;;;4.80;3.20;;;;;;;;;;5053028;28;20028;-44
2022/05/20 06:02:00;;;;;;;10.32;3.15;;;;;;;;;;5052988;28;20036;-44
2022/05/20 06:04:26;;;;;;;8.70;3.70;;;;;;;;;;5050889;28;20100;-42
2022/05/20 06:06:55;;;;;;;10.23;3.88;;;;;;;;;;5053033;28;20032;-42
2022/05/20 06:09:22;;;;;;;6.97;3.08;;;;;;;;;;5053304;28;20036;-42
2022/05/20 06:11:49;;;;;;;11.35;3.33;;;;;;;;;;5053056;28;20079;-42
2022/05/20 06:14:15;;;;;;;11.63;3.20;;;;;;;;;;5053470;28;20025;-41
2022/05/20 06:16:41;;;;;;;9.85;2.55;;;;;;;;;;5053339;28;20028;-41
2022/05/20 06:19:07;;;;;;;14.00;3.85;;;;;;;;;;5053401;28;20025;-41
2022/05/20 06:21:34;;;;;;;7.05;2.65;;;;;;;;;;5053088;28;20037;-41
2022/05/20 06:24:01;;;;;;;12.30;4.03;;;;;;;;;;5053198;28;20083;-41
2022/05/20 06:26:30;;;;;;;9.45;3.75;;;;;;;;;;5052963;28;20025;-42
2022/05/20 06:28:56;;;;;;;5.32;2.50;;;;;;;;;;5053265;28;20032;-41
2022/05/20 06:31:22;;;;;;;12.30;6.78;;;;;;;;;;5053125;28;20025;-39
2022/05/20 06:33:48;;;;;;;7.10;3.10;;;;;;;;;;5052349;28;20480;-40
2022/05/20 06:41:44;;;;;;;6.22;2.42;;;;;;;;;;5051954;28;20078;-44
2022/05/20 06:44:11;;;;;;;4.80;2.88;;;;;;;;;;5052420;28;20071;-45
2022/05/20 06:46:37;;;;;;;7.03;2.85;;;;;;;;;;5052971;28;20060;-44
2022/05/20 06:49:04;;;;;;;11.02;4.80;;;;;;;;;;5052816;28;20025;-44
2022/05/20 06:51:30;;;;;;;6.25;3.13;;;;;;;;;;5052211;28;20040;-45
2022/05/20 06:54:00;;;;;;;3.33;2.05;;;;;;;;;;5052987;28;20021;-44
2022/05/20 06:56:30;;;;;;;8.10;2.88;;;;;;;;;;5052927;28;20029;-44
2022/05/20 06:58:59;;;;;;;8.30;3.40;;;;;;;;;;5052856;28;20469;-44
2022/05/20 07:01:26;;;;;;;8.20;4.18;;;;;;;;;;5052491;28;20489;-45
2022/05/20 07:03:53;;;;;;;2.83;1.65;;;;;;;;;;5054416;28;20021;-45
2022/05/20 07:06:22;;;;;;;3.50;1.92;;;;;;;;;;5056363;28;20376;-45
2022/05/20 07:08:48;;;;;;;7.40;2.30;;;;;;;;;;5056055;28;20016;-45
2022/05/20 07:11:18;;;;;;;4.78;2.40;;;;;;;;;;5056087;28;20045;-44
2022/05/20 07:13:44;;;;;;;9.23;1.70;;;;;;;;;;5056256;28;20469;-45
2022/05/20 07:16:13;;;;;;;4.60;1.90;;;;;;;;;;5056092;28;20029;-45
2022/05/20 07:18:39;;;;;;;6.97;2.60;;;;;;;;;;5056164;28;20013;-45
2022/05/20 07:21:05;;;;;;;4.28;1.90;;;;;;;;;;5055658;28;20029;-46
2022/05/20 07:23:32;;;;;;;5.82;2.00;;;;;;;;;;5056107;28;20460;-45
2022/05/20 07:25:59;;;;;;;7.88;1.70;;;;;;;;;;5056022;28;20055;-45
2022/05/20 07:28:25;;;;;;;3.58;1.80;;;;;;;;;;5056000;28;20057;-45
2022/05/20 07:30:52;;;;;;;5.25;1.90;;;;;;;;;;5055625;28;20419;-45
2022/05/20 07:33:20;;;;;;;3.55;1.73;;;;;;;;;;5055830;28;20029;-45
2022/05/20 07:35:46;;;;;;;4.68;1.83;;;;;;;;;;5056214;28;20017;-45
2022/05/20 07:38:12;;;;;;;4.68;2.03;;;;;;;;;;5056396;28;20036;-45
2022/05/20 07:40:43;;;;;;;8.80;1.98;;;;;;;;;;5056364;28;20025;-45
2022/05/20 07:43:09;;;;;;;8.07;2.25;;;;;;;;;;5056197;28;20039;-45
2022/05/20 07:45:35;;;;;;;5.32;1.80;;;;;;;;;;5055744;28;20090;-45
2022/05/20 07:48:01;;;;;;;8.70;2.38;;;;;;;;;;5055781;28;20094;-45
2022/05/20 07:50:28;;;;;;;4.45;1.63;;;;;;;;;;5055533;28;20069;-45
2022/05/20 07:55:44;;;;;;;5.05;1.70;;;;;;;;;;5052770;28;20039;-44
2022/05/20 07:58:14;;;;;;;6.22;1.67;;;;;;;;;;5055735;28;20025;-44
2022/05/20 08:00:40;;;;;;;3.65;1.60;;;;;;;;;;5055508;28;20024;-44
2022/05/20 08:03:08;;;;;;;3.40;1.73;;;;;;;;;;5055465;28;20060;-44
2022/05/20 08:05:35;;;;;;;3.38;1.33;;;;;;;;;;5055049;28;20040;-44
2022/05/20 08:08:03;;;;;;;4.72;1.70;;;;;;;;;;5055192;28;20065;-44
2022/05/20 08:10:30;;;;;;;5.15;1.50;;;;;;;;;;5055089;28;20041;-45
2022/05/20 08:12:59;;;;;;;3.45;1.67;;;;;;;;;;5055196;28;20028;-44
2022/05/20 08:15:31;;;;;;;4.80;2.00;;;;;;;;;;5054718;28;20132;-45
2022/05/20 08:17:57;;;;;;;9.95;1.50;;;;;;;;;;5055052;28;20396;-44
2022/05/20 08:20:29;;;;;;;4.60;2.42;;;;;;;;;;5054973;28;20028;-43
2022/05/20 08:22:56;;;;;;;5.68;2.08;;;;;;;;;;5054809;28;20029;-42
2022/05/20 08:25:24;;;;;;;6.10;2.17;;;;;;;;;;5054850;28;20021;-45
2022/05/20 08:27:50;;;;;;;5.93;2.40;;;;;;;;;;5054778;28;20013;-46
2022/05/20 08:30:21;;;;;;;5.95;4.20;;;;;;;;;;5054729;28;20083;-45
2022/05/20 08:32:47;;;;;;;;;;;;;;;;;;5055268;28;20017;-46
2022/05/20 08:35:13;;;;;;;8.20;2.55;;;;;;;;;;5054940;28;19912;-45
2022/05/20 08:37:43;;;;;;;5.18;1.80;;;;;;;;;;5054710;28;20044;-45
2022/05/20 08:40:11;;;;;;;3.30;1.80;;;;;;;;;;5055090;28;20025;-44
2022/05/20 08:42:38;;;;;;;15.85;11.25;;;;;;;;;;5054880;28;20106;-45
2022/05/20 08:45:06;;;;;;;8.52;4.03;;;;;;;;;;5055147;28;20029;-47
2022/05/20 08:47:46;;;;;;;63.17;34.22;;;;;;;;;;5055120;28;20060;-46
2022/05/20 08:50:18;;;;;;;9.90;4.25;;;;;;;;;;5054788;28;20389;-46
2022/05/20 08:52:44;;;;;;;3.40;1.77;;;;;;;;;;5054672;28;20033;-46
2022/05/20 08:55:12;;;;;;;5.93;1.60;;;;;;;;;;5054794;28;20469;-47
2022/05/20 08:57:39;;;;;;;5.28;1.70;;;;;;;;;;5054645;28;20031;-48
2022/05/20 09:00:07;;;;;;;56.65;38.47;;;;;;;;;;5054686;28;20025;-47
2022/05/20 09:02:33;;;;;;;25.30;13.43;;;;;;;;;;5054948;28;20396;-46
2022/05/20 09:04:59;;;;;;;41.97;25.73;;;;;;;;;;5054226;28;20098;-39
2022/05/20 09:07:25;;;;;;;16.25;7.38;;;;;;;;;;5054046;28;20063;-43
2022/05/20 09:09:52;;;;;;;6.10;4.22;;;;;;;;;;5053844;28;20396;-43
2022/05/20 09:12:45;;;;;;;42.20;21.40;;;;;;;;;;5053845;28;20024;-44
2022/05/20 09:18:06;;;;;;;5.22;2.80;;;;;;;;;;5053279;28;20079;-46
2022/05/20 09:20:32;;;;;;;2.33;1.63;;;;;;;;;;5052089;28;20033;-46
2022/05/20 09:23:07;;;;;;;3.17;1.80;;;;;;;;;;5054533;28;20033;-46
2022/05/20 09:25:34;;;;;;;5.15;1.75;;;;;;;;;;5054225;28;20065;-45
2022/05/20 09:28:15;;;;;;;2.63;1.77;;;;;;;;;;5051313;28;20377;-46
2022/05/20 09:30:41;;;;;;;9.52;2.78;;;;;;;;;;5054111;28;20107;-45
2022/05/20 09:33:12;;;;;;;2.35;2.00;;;;;;;;;;5054047;28;20032;-46
2022/05/20 09:35:38;;;;;;;2.38;1.73;;;;;;;;;;5053735;28;20477;-46
2022/05/20 09:38:26;;;;;;;4.10;1.35;;;;;;;;;;5054261;28;20053;-46
2022/05/20 09:40:54;;;;;;;1.85;1.50;;;;;;;;;;5054096;28;20028;-46
2022/05/20 09:43:28;;;;;;;3.13;1.48;;;;;;;;;;5054047;28;20082;-46
2022/05/20 09:45:55;;;;;;;4.50;1.58;;;;;;;;;;5054197;28;20021;-47
2022/05/20 09:48:41;;;;;;;3.65;1.48;;;;;;;;;;5054318;28;20025;-46
2022/05/20 09:51:13;;;;;;;3.70;1.20;;;;;;;;;;5053866;28;20033;-46
2022/05/20 09:53:42;;;;;;;5.60;2.05;;;;;;;;;;5053612;28;20445;-46
2022/05/20 09:56:31;;;;;;;5.00;2.10;;;;;;;;;;5053538;28;20092;-46
2022/05/20 09:59:16;;;;;;;3.05;1.70;;;;;;;;;;5053549;28;20473;-45
2022/05/20 10:01:48;;;;;;;4.38;2.38;;;;;;;;;;5053686;28;20158;-45
2022/05/20 10:04:18;;;;;;;4.50;1.30;;;;;;;;;;5053443;28;20120;-45
2022/05/20 10:06:47;;;;;;;8.07;4.03;;;;;;;;;;5053799;28;20103;-46
2022/05/20 10:09:16;;;;;;;3.10;1.75;;;;;;;;;;5053800;28;20121;-46
2022/05/20 10:12:01;;;;;;;3.97;1.38;;;;;;;;;;5053261;28;20049;-46
2022/05/20 10:14:39;;;;;;;19.02;10.93;;;;;;;;;;5053427;28;20109;-46
2022/05/20 10:17:20;;;;;;;4.88;2.65;;;;;;;;;;5053554;28;20067;-46
2022/05/20 10:19:50;;;;;;;11.63;6.28;;;;;;;;;;5053379;28;20025;-45
2022/05/20 10:22:16;;;;;;;9.18;5.50;;;;;;;;;;5053391;28;20432;-45
2022/05/20 10:24:42;;;;;;;6.07;4.13;;;;;;;;;;5053501;28;20017;-46
2022/05/20 10:27:24;;;;;;;5.18;3.80;;;;;;;;;;5053641;28;20099;-46
2022/05/20 10:33:09;;;;;;;5.63;3.60;;;;;;;;;;4953577;29;20098;-46
2022/05/20 10:35:53;;;;;;;5.63;2.40;;;;;;;;;;4952967;29;20050;-46
2022/05/20 10:38:45;;;;;;;4.88;3.10;;;;;;;;;;4952784;29;20066;-45
2022/05/20 10:41:28;;;;;;;6.80;2.10;;;;;;;;;;4938814;29;20086;-47
2022/05/20 10:49:43;;;;;;;9.70;2.80;;;;;;;;;;4953503;29;20126;-45
2022/05/20 10:52:16;;;;;;;5.28;3.60;;;;;;;;;;4953306;28;20554;-45
2022/05/20 10:54:42;;;;;;;6.45;1.50;;;;;;;;;;4953116;29;20451;-45
2022/05/20 10:57:27;;;;;;;4.50;1.50;;;;;;;;;;4953072;29;20027;-46
2022/05/20 11:00:03;;;;;;;5.68;1.80;;;;;;;;;;4953189;29;20031;-46
2022/05/20 11:02:32;;;;;;;7.82;4.45;;;;;;;;;;4953085;29;20547;-45
2022/05/20 11:05:07;;;;;;;3.60;2.13;;;;;;;;;;4952688;29;20432;-46
2022/05/20 11:07:45;;;;;;;5.28;2.95;;;;;;;;;;4967284;28;20078;-45
2022/05/20 11:10:30;;;;;;;4.75;1.98;;;;;;;;;;5052785;28;20045;-46
2022/05/20 11:13:03;;;;;;;7.88;3.20;;;;;;;;;;5052519;28;20063;-47
2022/05/20 11:15:45;;;;;;;7.10;4.53;;;;;;;;;;5052836;28;20421;-46
2022/05/20 11:18:50;;;;;;;4.22;2.00;;;;;;;;;;5052827;28;20031;-46
2022/05/20 11:21:16;;;;;;;10.38;3.08;;;;;;;;;;4991511;28;20141;-45
2022/05/20 11:23:42;;;;;;;12.15;3.08;;;;;;;;;;4991384;28;20033;-46
2022/05/20 11:26:28;;;;;;;7.00;2.20;;;;;;;;;;4991342;28;20050;-43
2022/05/20 11:29:20;;;;;;;3.17;2.05;;;;;;;;;;4991429;28;20065;-45
2022/05/20 11:31:53;;;;;;;1.85;1.30;;;;;;;;;;4991414;28;20046;-45
2022/05/20 11:34:22;;;;;;;3.38;2.35;;;;;;;;;;4985298;28;20027;-46
2022/05/20 11:36:49;;;;;;;8.93;2.45;;;;;;;;;;4972285;28;20070;-46
2022/05/20 11:39:15;;;;;;;5.00;1.60;;;;;;;;;;4972087;28;20399;-46
2022/05/20 11:41:59;;;;;;;6.25;1.50;;;;;;;;;;4971912;28;20027;-48
2022/05/20 11:44:44;;;;;;;6.95;2.55;;;;;;;;;;4971915;28;20423;-46
2022/05/20 11:47:28;;;;;;;5.72;3.38;;;;;;;;;;4972114;28;20030;-46
2022/05/20 11:50:00;;;;;;;6.78;1.55;;;;;;;;;;4972128;28;20047;-48
2022/05/20 11:52:32;;;;;;;14.50;6.28;;;;;;;;;;5015930;28;20077;-46
2022/05/20 11:55:04;;;;;;;3.00;1.52;;;;;;;;;;5036144;28;20075;-44
2022/05/20 11:57:35;;;;;;;3.63;1.90;;;;;;;;;;5035886;28;20029;-45
2022/05/20 12:00:06;;;;;;;2.95;1.38;;;;;;;;;;5052283;28;20039;-46
2022/05/20 12:02:36;;;;;;;10.77;3.83;;;;;;;;;;5055352;28;20530;-44
2022/05/20 12:05:02;;;;;;;3.10;1.85;;;;;;;;;;5055510;28;20052;-46
2022/05/20 12:07:28;;;;;;;5.78;1.70;;;;;;;;;;5055170;28;20112;-45
2022/05/20 12:09:55;;;;;;;9.55;4.68;;;;;;;;;;5054905;28;20064;-45
2022/05/20 12:12:23;;;;;;;5.10;3.38;;;;;;;;;;5055188;28;20029;-45
2022/05/20 12:15:08;;;;;;;29.73;16.95;;;;;;;;;;5052786;28;20075;-44
2022/05/20 12:17:36;;;;;;;19.90;11.38;;;;;;;;;;5053339;28;20025;-45
2022/05/20 12:25:52;;;;;;;3.15;2.00;;;;;;;;;;5055323;28;20156;-45
2022/05/20 12:28:21;;;;;;;5.72;3.35;;;;;;;;;;5037292;28;20504;-46
2022/05/20 12:31:05;;;;;;;7.30;4.85;;;;;;;;;;5055582;28;20044;-45
2022/05/20 12:33:52;;;;;;;16.25;7.00;;;;;;;;;;5055181;28;20028;-44
2022/05/20 12:36:32;;;;;;;15.25;7.75;;;;;;;;;;5055211;28;20060;-45
2022/05/20 12:39:11;;;;;;;18.15;10.20;;;;;;;;;;5055132;28;20044;-46
2022/05/20 12:41:58;;;;;;;106.63;64.18;;;;;;;;;;5055068;28;20428;-45
2022/05/20 12:44:24;;;;;;;6.63;3.90;;;;;;;;;;5054977;28;20096;-46
2022/05/20 12:47:03;;;;;;;3.70;2.70;;;;;;;;;;5055251;28;20033;-46
2022/05/20 12:49:32;;;;;;;5.32;2.38;;;;;;;;;;5054765;28;20500;-43
2022/05/20 12:52:11;;;;;;;3.72;2.65;;;;;;;;;;5054710;28;20389;-43
2022/05/20 12:54:42;;;;;;;4.47;3.17;;;;;;;;;;5052104;28;20381;-44
2022/05/20 12:57:10;;;;;;;27.70;18.67;;;;;;;;;;5054843;28;20082;-45
2022/05/20 12:59:36;;;;;;;12.38;7.25;;;;;;;;;;5054898;28;20127;-46
2022/05/20 13:02:07;;;;;;;9.10;4.07;;;;;;;;;;5054299;28;20067;-47
2022/05/20 13:04:37;;;;;;;20.90;14.50;;;;;;;;;;5054806;28;20035;-47
2022/05/20 13:07:03;;;;;;;4.63;1.90;;;;;;;;;;5054538;28;20142;-46
2022/05/20 13:09:37;;;;;;;26.42;16.17;;;;;;;;;;5054595;28;20507;-46
2022/05/20 13:12:04;;;;;;;18.38;10.27;;;;;;;;;;5054364;28;20052;-46
2022/05/20 13:14:35;;;;;;;6.43;3.15;;;;;;;;;;5054685;28;20025;-46
2022/05/20 13:17:03;;;;;;;2.53;1.17;;;;;;;;;;5054404;28;20036;-45
2022/05/20 13:19:49;;;;;;;108.50;82.75;;;;;;;;;;5054217;28;20021;-49
2022/05/20 13:22:21;;;;;;;2.03;1.58;;;;;;;;;;5054173;28;20057;-44
2022/05/20 13:24:52;;;;;;;2.72;1.63;;;;;;;;;;5053836;28;20480;-48
2022/05/20 13:27:21;;;;;;;4.38;3.13;;;;;;;;;;5054152;28;20029;-42
2022/05/20 13:29:47;;;;;;;0.88;0.85;;;;;;;;;;5054092;28;20037;-46
2022/05/20 13:32:27;;;;;;;3.72;2.35;;;;;;;;;;5054158;28;20070;-44
2022/05/20 13:34:54;;;;;;;6.00;3.33;;;;;;;;;;5054039;28;20104;-43
2022/05/20 13:37:37;;;;;;;2.85;1.20;;;;;;;;;;5053982;28;20028;-44
2022/05/20 13:40:13;;;;;;;6.07;1.50;;;;;;;;;;5053957;28;20399;-46
2022/05/20 13:42:40;;;;;;;3.42;1.33;;;;;;;;;;5053870;28;20024;-45
2022/05/20 13:45:13;;;;;;;3.45;2.55;;;;;;;;;;5053978;28;20031;-43
2022/05/20 13:50:28;;;;;;;11.20;6.05;;;;;;;;;;5053947;28;20087;-45
2022/05/20 13:52:57;;;;;;;9.93;5.82;;;;;;;;;;5053790;28;20087;-46
2022/05/20 13:55:26;;;;;;;8.45;4.05;;;;;;;;;;5053532;28;20510;-44
2022/05/20 13:57:52;;;;;;;3.45;2.42;;;;;;;;;;5053897;28;20161;-44
2022/05/20 14:00:22;;;;;;;10.07;6.05;;;;;;;;;;5053468;28;20021;-45
2022/05/20 14:03:11;;;;;;;7.00;3.83;;;;;;;;;;5052909;28;20508;-45
2022/05/20 14:06:06;;;;;;;4.80;3.00;;;;;;;;;;5039350;28;20029;-45
2022/05/20 14:08:37;;;;;;;3.35;2.17;;;;;;;;;;5031376;28;20049;-45
2022/05/20 14:11:08;;;;;;;5.55;2.95;;;;;;;;;;5052341;28;20136;-44
2022/05/20 14:13:36;;;;;;;5.72;2.60;;;;;;;;;;5051781;28;20024;-44
2022/05/20 14:16:07;;;;;;;2.42;1.45;;;;;;;;;;5052912;28;20040;-44
2022/05/20 14:18:36;;;;;;;5.75;2.38;;;;;;;;;;5053235;28;20087;-45
2022/05/20 14:21:12;;;;;;;2.78;1.80;;;;;;;;;;5053171;28;20033;-44
2022/05/20 14:23:43;;;;;;;2.20;1.42;;;;;;;;;;5052698;28;20032;-45
2022/05/20 14:26:23;;;;;;;12.75;3.17;;;;;;;;;;5052654;28;20021;-44
2022/05/20 14:28:56;;;;;;;3.63;2.13;;;;;;;;;;5052434;28;20052;-44
2022/05/20 14:31:28;;;;;;;5.15;1.95;;;;;;;;;;5052329;28;20055;-44
2022/05/20 14:33:57;;;;;;;2.80;1.88;;;;;;;;;;5052838;28;20025;-44
2022/05/20 14:36:28;;;;;;;3.22;1.73;;;;;;;;;;5052732;28;20021;-44
2022/05/20 14:38:59;;;;;;;2.88;1.50;;;;;;;;;;5053265;28;20029;-44
2022/05/20 14:41:26;;;;;;;5.40;1.52;;;;;;;;;;5053303;28;20017;-43
2022/05/20 14:44:00;;;;;;;3.42;1.80;;;;;;;;;;5052969;28;20120;-44
2022/05/20 14:49:16;;;;;;;;;;;;;;;;;;5053879;28;20036;-45
2022/05/20 14:51:46;;;;;;;2.67;1.30;;;;;;;;;;5052803;28;20301;-45
2022/05/20 14:54:15;;;;;;;1.73;1.45;;;;;;;;;;5034667;28;20362;-45
2022/05/20 14:56:42;;;;;;;3.50;1.50;;;;;;;;;;5052630;28;20036;-44
2022/05/20 14:59:09;;;;;;;1.67;1.23;;;;;;;;;;5052549;28;20017;-44
2022/05/20 15:01:36;;;;;;;6.45;2.35;;;;;;;;;;5034490;28;20456;-44
2022/05/20 15:04:02;;;;;;;1.60;1.50;;;;;;;;;;5052298;28;20032;-46
2022/05/20 15:06:34;;;;;;;2.10;1.15;;;;;;;;;;5052520;28;20530;-46
2022/05/20 15:09:00;;;;;;;1.95;1.35;;;;;;;;;;5052658;28;20070;-44
2022/05/20 15:11:39;;;;;;;1.27;1.17;;;;;;;;;;5052812;28;20057;-44
2022/05/20 15:14:05;;;;;;;4.95;1.45;;;;;;;;;;5067555;28;20060;-46
2022/05/20 15:16:32;;;;;;;7.32;2.20;;;;;;;;;;5052937;28;20429;-46
2022/05/20 15:18:58;;;;;;;13.35;4.13;;;;;;;;;;5053093;28;20372;-46
2022/05/20 15:21:29;;;;;;;20.08;6.15;;;;;;;;;;5053059;28;20032;-46
2022/05/20 15:23:59;;;;;;;17.10;5.53;;;;;;;;;;5053132;28;20037;-46
2022/05/20 15:26:26;;;;;;;17.33;4.40;;;;;;;;;;5056550;28;20080;-45
2022/05/20 15:28:53;;;;;;;8.52;3.70;;;;;;;;;;5056725;28;20032;-47
2022/05/20 15:36:59;;;;;;;5.55;2.65;;;;;;;;;;5056739;28;20060;-43
2022/05/20 15:39:26;;;;;;;3.00;2.03;;;;;;;;;;5056326;28;20385;-45
2022/05/20 15:41:52;;;;;;;4.40;2.30;;;;;;;;;;5056695;28;20108;-45
2022/05/20 15:44:18;;;;;;;6.63;2.60;;;;;;;;;;5056285;28;20528;-45
2022/05/20 15:46:44;;;;;;;3.97;1.77;;;;;;;;;;5056050;28;20033;-46
2022/05/20 15:49:13;;;;;;;10.00;3.80;;;;;;;;;;5056145;28;20017;-46